sensor_id;sensor_type;location;lat;lon;timestamp;pressure;altitude;pressure_sealevel;temperature;humidity
40794;BME280;26502;51.886;15.604;2023-08-12T00:02:20;101246.35;;;16.42;60.60
40794;BME280;26502;51.886;15.604;2023-08-12T00:07:26;101242.77;;;16.35;60.84
40794;BME280;26502;51.886;15.604;2023-08-12T00:12:32;101247.79;;;16.27;60.83
40794;BME280;26502;51.886;15.604;2023-08-12T00:17:39;101250.27;;;16.24;61.02
40794;BME280;26502;51.886;15.604;2023-08-12T00:22:46;101246.39;;;16.19;61.27
40794;BME280;26502;51.886;15.604;2023-08-12T00:27:52;101245.19;;;16.21;61.39
40794;BME280;26502;51.886;15.604;2023-08-12T00:32:58;101241.21;;;16.14;61.31
40794;BME280;26502;51.886;15.604;2023-08-12T00:38:05;101234.82;;;16.05;61.53
40794;BME280;26502;51.886;15.604;2023-08-12T00:43:12;101235.02;;;16.01;61.71
40794;BME280;26502;51.886;15.604;2023-08-12T00:48:18;101230.03;;;16.04;61.88
40794;BME280;26502;51.886;15.604;2023-08-12T00:53:24;101231.02;;;16.02;61.97
40794;BME280;26502;51.886;15.604;2023-08-12T00:58:31;101224.90;;;15.95;62.02
40794;BME280;26502;51.886;15.604;2023-08-12T01:03:38;101221.89;;;15.90;62.12
40794;BME280;26502;51.886;15.604;2023-08-12T01:08:45;101212.20;;;15.83;62.33
40794;BME280;26502;51.886;15.604;2023-08-12T01:13:57;101205.86;;;15.76;62.41
40794;BME280;26502;51.886;15.604;2023-08-12T01:19:06;101205.01;;;15.68;62.58
40794;BME280;26502;51.886;15.604;2023-08-12T01:24:15;101204.81;;;15.59;62.58
40794;BME280;26502;51.886;15.604;2023-08-12T01:29:21;101198.89;;;15.52;62.83
40794;BME280;26502;51.886;15.604;2023-08-12T01:34:32;101197.94;;;15.50;62.97
40794;BME280;26502;51.886;15.604;2023-08-12T01:39:43;101198.63;;;15.50;63.11
40794;BME280;26502;51.886;15.604;2023-08-12T01:44:51;101196.91;;;15.44;63.26
40794;BME280;26502;51.886;15.604;2023-08-12T01:49:57;101192.52;;;15.38;63.38
40794;BME280;26502;51.886;15.604;2023-08-12T01:55:05;101192.91;;;15.37;63.36
40794;BME280;26502;51.886;15.604;2023-08-12T02:00:12;101194.78;;;15.36;63.60
40794;BME280;26502;51.886;15.604;2023-08-12T02:05:24;101191.79;;;15.31;63.50
40794;BME280;26502;51.886;15.604;2023-08-12T02:10:30;101198.02;;;15.27;63.52
40794;BME280;26502;51.886;15.604;2023-08-12T02:15:36;101191.05;;;15.23;63.62
40794;BME280;26502;51.886;15.604;2023-08-12T02:20:43;101190.17;;;15.18;63.86
40794;BME280;26502;51.886;15.604;2023-08-12T02:25:49;101186.88;;;15.28;63.90
40794;BME280;26502;51.886;15.604;2023-08-12T02:30:54;101183.42;;;15.25;63.89
40794;BME280;26502;51.886;15.604;2023-08-12T02:36:00;101185.25;;;15.13;64.12
40794;BME280;26502;51.886;15.604;2023-08-12T02:41:07;101184.14;;;15.09;64.02
40794;BME280;26502;51.886;15.604;2023-08-12T02:46:13;101184.30;;;15.05;64.20
40794;BME280;26502;51.886;15.604;2023-08-12T02:51:20;101181.67;;;15.00;64.38
40794;BME280;26502;51.886;15.604;2023-08-12T02:56:26;101179.39;;;14.90;64.41
40794;BME280;26502;51.886;15.604;2023-08-12T03:01:32;101179.41;;;14.77;64.55
40794;BME280;26502;51.886;15.604;2023-08-12T03:06:37;101173.23;;;14.70;64.94
40794;BME280;26502;51.886;15.604;2023-08-12T03:11:44;101175.50;;;14.76;64.87
40794;BME280;26502;51.886;15.604;2023-08-12T03:16:50;101177.48;;;14.71;64.95
40794;BME280;26502;51.886;15.604;2023-08-12T03:21:56;101173.15;;;14.72;65.01
40794;BME280;26502;51.886;15.604;2023-08-12T03:27:03;101173.30;;;14.73;65.07
40794;BME280;26502;51.886;15.604;2023-08-12T03:32:09;101174.48;;;14.67;65.19
40794;BME280;26502;51.886;15.604;2023-08-12T03:37:15;101164.02;;;14.65;65.38
40794;BME280;26502;51.886;15.604;2023-08-12T03:42:21;101155.85;;;14.63;65.36
40794;BME280;26502;51.886;15.604;2023-08-12T03:47:27;101149.26;;;14.63;65.41
40794;BME280;26502;51.886;15.604;2023-08-12T03:52:34;101144.99;;;14.57;65.41
40794;BME280;26502;51.886;15.604;2023-08-12T03:57:40;101144.69;;;14.56;65.66
40794;BME280;26502;51.886;15.604;2023-08-12T04:02:46;101141.76;;;14.62;65.53
40794;BME280;26502;51.886;15.604;2023-08-12T04:07:52;101138.88;;;14.63;65.58
40794;BME280;26502;51.886;15.604;2023-08-12T04:12:58;101136.79;;;14.66;65.74
40794;BME280;26502;51.886;15.604;2023-08-12T04:18:05;101137.60;;;14.68;65.72
40794;BME280;26502;51.886;15.604;2023-08-12T04:23:12;101140.81;;;14.81;65.88
40794;BME280;26502;51.886;15.604;2023-08-12T04:28:18;101137.84;;;14.87;65.89
40794;BME280;26502;51.886;15.604;2023-08-12T04:33:26;101134.93;;;14.89;66.03
40794;BME280;26502;51.886;15.604;2023-08-12T04:38:32;101129.19;;;14.97;66.20
40794;BME280;26502;51.886;15.604;2023-08-12T04:43:39;101126.38;;;15.08;66.52
40794;BME280;26502;51.886;15.604;2023-08-12T04:48:45;101136.48;;;15.23;66.56
40794;BME280;26502;51.886;15.604;2023-08-12T04:53:52;101137.33;;;15.32;66.69
40794;BME280;26502;51.886;15.604;2023-08-12T04:58:58;101135.79;;;15.38;66.70
40794;BME280;26502;51.886;15.604;2023-08-12T05:04:05;101138.52;;;15.49;66.91
40794;BME280;26502;51.886;15.604;2023-08-12T05:09:11;101136.13;;;15.58;67.07
40794;BME280;26502;51.886;15.604;2023-08-12T05:14:17;101134.61;;;15.71;66.98
40794;BME280;26502;51.886;15.604;2023-08-12T05:19:24;101130.84;;;15.84;67.06
40794;BME280;26502;51.886;15.604;2023-08-12T05:24:30;101127.89;;;15.93;67.28
40794;BME280;26502;51.886;15.604;2023-08-12T05:29:36;101123.52;;;16.10;67.28
40794;BME280;26502;51.886;15.604;2023-08-12T05:34:41;101114.77;;;16.28;67.46
40794;BME280;26502;51.886;15.604;2023-08-12T05:39:47;101113.55;;;16.38;67.37
40794;BME280;26502;51.886;15.604;2023-08-12T05:44:53;101111.48;;;16.47;67.56
40794;BME280;26502;51.886;15.604;2023-08-12T05:49:59;101114.58;;;16.60;67.41
40794;BME280;26502;51.886;15.604;2023-08-12T05:55:06;101113.20;;;16.74;67.82
40794;BME280;26502;51.886;15.604;2023-08-12T06:00:14;101108.39;;;16.87;67.81
40794;BME280;26502;51.886;15.604;2023-08-12T06:05:20;101101.61;;;17.01;67.77
40794;BME280;26502;51.886;15.604;2023-08-12T06:10:26;101096.19;;;17.18;67.71
40794;BME280;26502;51.886;15.604;2023-08-12T06:15:33;101100.60;;;17.37;67.55
40794;BME280;26502;51.886;15.604;2023-08-12T06:20:38;101094.23;;;17.55;67.48
40794;BME280;26502;51.886;15.604;2023-08-12T06:25:44;101094.02;;;17.74;67.37
40794;BME280;26502;51.886;15.604;2023-08-12T06:30:50;101102.73;;;17.96;67.06
40794;BME280;26502;51.886;15.604;2023-08-12T06:35:56;101093.25;;;18.24;66.61
40794;BME280;26502;51.886;15.604;2023-08-12T06:41:02;101084.35;;;18.34;66.47
40794;BME280;26502;51.886;15.604;2023-08-12T06:46:08;101082.13;;;18.54;66.77
40794;BME280;26502;51.886;15.604;2023-08-12T06:51:14;101083.73;;;18.60;66.08
40794;BME280;26502;51.886;15.604;2023-08-12T06:56:20;101085.31;;;18.73;65.96
40794;BME280;26502;51.886;15.604;2023-08-12T07:01:26;101081.48;;;18.86;65.74
40794;BME280;26502;51.886;15.604;2023-08-12T07:06:32;101080.08;;;19.33;65.78
40794;BME280;26502;51.886;15.604;2023-08-12T07:11:38;101074.30;;;19.67;65.44
40794;BME280;26502;51.886;15.604;2023-08-12T07:16:44;101064.27;;;20.00;64.94
40794;BME280;26502;51.886;15.604;2023-08-12T07:21:50;101059.48;;;20.04;64.48
40794;BME280;26502;51.886;15.604;2023-08-12T07:26:56;101055.23;;;20.27;64.49
40794;BME280;26502;51.886;15.604;2023-08-12T07:32:02;101054.27;;;20.66;64.26
40794;BME280;26502;51.886;15.604;2023-08-12T07:37:09;101056.56;;;20.93;63.89
40794;BME280;26502;51.886;15.604;2023-08-12T07:42:15;101058.38;;;21.11;63.53
40794;BME280;26502;51.886;15.604;2023-08-12T07:47:21;101051.23;;;21.37;63.33
40794;BME280;26502;51.886;15.604;2023-08-12T07:52:27;101048.14;;;21.51;62.98
40794;BME280;26502;51.886;15.604;2023-08-12T07:57:33;101042.09;;;21.79;62.76
40794;BME280;26502;51.886;15.604;2023-08-12T08:02:40;101036.11;;;21.94;62.30
40794;BME280;26502;51.886;15.604;2023-08-12T08:07:46;101034.27;;;22.09;62.15
40794;BME280;26502;51.886;15.604;2023-08-12T08:12:52;101032.08;;;22.38;61.91
40794;BME280;26502;51.886;15.604;2023-08-12T08:17:58;101025.58;;;22.94;61.88
40794;BME280;26502;51.886;15.604;2023-08-12T08:23:05;101017.59;;;23.29;61.44
40794;BME280;26502;51.886;15.604;2023-08-12T08:28:11;101016.27;;;23.54;60.89
40794;BME280;26502;51.886;15.604;2023-08-12T08:33:17;101015.73;;;23.43;60.39
40794;BME280;26502;51.886;15.604;2023-08-12T08:38:23;101021.97;;;23.46;60.15
40794;BME280;26502;51.886;15.604;2023-08-12T08:43:29;101023.30;;;23.50;60.21
40794;BME280;26502;51.886;15.604;2023-08-12T08:48:36;101025.09;;;23.51;59.75
40794;BME280;26502;51.886;15.604;2023-08-12T08:53:43;101024.24;;;23.63;60.10
40794;BME280;26502;51.886;15.604;2023-08-12T08:58:49;101020.01;;;23.95;59.83
40794;BME280;26502;51.886;15.604;2023-08-12T09:03:55;101013.07;;;24.26;59.38
40794;BME280;26502;51.886;15.604;2023-08-12T09:09:03;101009.05;;;24.48;58.68
40794;BME280;26502;51.886;15.604;2023-08-12T09:14:11;101006.12;;;24.83;58.46
40794;BME280;26502;51.886;15.604;2023-08-12T09:19:17;101005.99;;;25.26;57.53
40794;BME280;26502;51.886;15.604;2023-08-12T09:24:26;101001.48;;;25.59;56.80
40794;BME280;26502;51.886;15.604;2023-08-12T09:29:35;100998.88;;;25.91;56.74
40794;BME280;26502;51.886;15.604;2023-08-12T09:34:48;100990.14;;;26.11;55.68
40794;BME280;26502;51.886;15.604;2023-08-12T09:39:54;100987.40;;;26.12;55.54
40794;BME280;26502;51.886;15.604;2023-08-12T09:44:59;100985.00;;;26.24;54.53
40794;BME280;26502;51.886;15.604;2023-08-12T09:50:07;100973.33;;;26.47;54.38
40794;BME280;26502;51.886;15.604;2023-08-12T09:55:17;100973.67;;;26.76;53.98
40794;BME280;26502;51.886;15.604;2023-08-12T10:00:24;100972.58;;;27.18;52.80
40794;BME280;26502;51.886;15.604;2023-08-12T10:05:32;100963.42;;;27.48;52.23
40794;BME280;26502;51.886;15.604;2023-08-12T10:10:39;100952.36;;;28.05;51.67
40794;BME280;26502;51.886;15.604;2023-08-12T10:15:45;100946.20;;;28.16;50.14
40794;BME280;26502;51.886;15.604;2023-08-12T10:20:51;100937.74;;;28.16;49.21
40794;BME280;26502;51.886;15.604;2023-08-12T10:26:01;100935.15;;;28.46;48.45
40794;BME280;26502;51.886;15.604;2023-08-12T10:31:08;100931.13;;;28.92;48.08
40794;BME280;26502;51.886;15.604;2023-08-12T10:36:16;100933.09;;;29.42;47.36
40794;BME280;26502;51.886;15.604;2023-08-12T10:41:24;100928.09;;;29.38;46.05
40794;BME280;26502;51.886;15.604;2023-08-12T10:46:33;100926.58;;;29.41;45.43
40794;BME280;26502;51.886;15.604;2023-08-12T10:51:56;100923.26;;;29.64;45.22
40794;BME280;26502;51.886;15.604;2023-08-12T10:57:11;100922.52;;;30.12;44.63
40794;BME280;26502;51.886;15.604;2023-08-12T11:02:19;100921.92;;;30.19;44.14
40794;BME280;26502;51.886;15.604;2023-08-12T11:07:37;100914.33;;;30.46;44.08
40794;BME280;26502;51.886;15.604;2023-08-12T11:12:53;100909.66;;;30.68;43.25
40794;BME280;26502;51.886;15.604;2023-08-12T11:18:01;100903.08;;;30.71;42.46
40794;BME280;26502;51.886;15.604;2023-08-12T11:23:08;100899.75;;;30.77;42.09
40794;BME280;26502;51.886;15.604;2023-08-12T11:28:17;100896.64;;;31.14;41.69
40794;BME280;26502;51.886;15.604;2023-08-12T11:33:25;100889.77;;;31.11;40.94
40794;BME280;26502;51.886;15.604;2023-08-12T11:38:31;100882.30;;;31.13;40.06
40794;BME280;26502;51.886;15.604;2023-08-12T11:43:37;100874.27;;;30.98;39.74
40794;BME280;26502;51.886;15.604;2023-08-12T11:48:44;100870.52;;;31.16;39.90
40794;BME280;26502;51.886;15.604;2023-08-12T11:53:50;100865.46;;;31.08;39.32
40794;BME280;26502;51.886;15.604;2023-08-12T11:58:56;100861.77;;;30.97;39.20
40794;BME280;26502;51.886;15.604;2023-08-12T12:04:03;100858.02;;;31.31;39.11
40794;BME280;26502;51.886;15.604;2023-08-12T12:09:08;100855.39;;;31.51;38.26
40794;BME280;26502;51.886;15.604;2023-08-12T12:14:14;100845.44;;;31.90;38.76
40794;BME280;26502;51.886;15.604;2023-08-12T12:19:21;100838.33;;;32.16;36.17
40794;BME280;26502;51.886;15.604;2023-08-12T12:24:30;100834.19;;;31.74;37.06
40794;BME280;26502;51.886;15.604;2023-08-12T12:29:36;100833.29;;;31.66;37.54
40794;BME280;26502;51.886;15.604;2023-08-12T12:34:42;100828.98;;;31.39;37.35
40794;BME280;26502;51.886;15.604;2023-08-12T12:39:48;100822.86;;;31.24;38.27
40794;BME280;26502;51.886;15.604;2023-08-12T12:44:54;100818.83;;;31.38;38.50
40794;BME280;26502;51.886;15.604;2023-08-12T12:50:00;100810.71;;;31.23;38.41
40794;BME280;26502;51.886;15.604;2023-08-12T12:55:07;100799.80;;;31.06;39.12
40794;BME280;26502;51.886;15.604;2023-08-12T13:00:14;100793.81;;;31.01;39.13
40794;BME280;26502;51.886;15.604;2023-08-12T13:05:20;100788.84;;;31.04;39.59
40794;BME280;26502;51.886;15.604;2023-08-12T13:10:26;100779.27;;;31.00;39.10
40794;BME280;26502;51.886;15.604;2023-08-12T13:15:32;100777.08;;;30.97;38.89
40794;BME280;26502;51.886;15.604;2023-08-12T13:20:38;100775.00;;;31.08;38.84
40794;BME280;26502;51.886;15.604;2023-08-12T13:25:44;100769.75;;;31.12;38.90
40794;BME280;26502;51.886;15.604;2023-08-12T13:30:50;100764.15;;;31.21;39.56
40794;BME280;26502;51.886;15.604;2023-08-12T13:35:56;100755.39;;;31.33;38.88
40794;BME280;26502;51.886;15.604;2023-08-12T13:41:02;100751.61;;;31.52;39.17
40794;BME280;26502;51.886;15.604;2023-08-12T13:46:08;100741.59;;;31.67;38.94
40794;BME280;26502;51.886;15.604;2023-08-12T13:51:13;100736.33;;;31.54;39.04
40794;BME280;26502;51.886;15.604;2023-08-12T13:56:20;100728.07;;;31.53;39.20
40794;BME280;26502;51.886;15.604;2023-08-12T14:01:26;100723.44;;;31.47;39.36
40794;BME280;26502;51.886;15.604;2023-08-12T14:06:32;100719.39;;;31.27;39.12
40794;BME280;26502;51.886;15.604;2023-08-12T14:11:38;100719.50;;;31.27;39.39
40794;BME280;26502;51.886;15.604;2023-08-12T14:16:44;100719.02;;;31.24;39.17
40794;BME280;26502;51.886;15.604;2023-08-12T14:21:50;100711.10;;;31.14;39.37
40794;BME280;26502;51.886;15.604;2023-08-12T14:26:56;100709.66;;;31.33;39.85
40794;BME280;26502;51.886;15.604;2023-08-12T14:32:03;100711.04;;;31.49;39.64
40794;BME280;26502;51.886;15.604;2023-08-12T14:37:09;100710.14;;;31.57;39.59
40794;BME280;26502;51.886;15.604;2023-08-12T14:42:15;100699.98;;;31.93;38.98
40794;BME280;26502;51.886;15.604;2023-08-12T14:47:21;100696.99;;;32.09;38.48
40794;BME280;26502;51.886;15.604;2023-08-12T14:52:27;100694.60;;;31.67;37.78
40794;BME280;26502;51.886;15.604;2023-08-12T14:57:33;100695.63;;;31.22;37.63
40794;BME280;26502;51.886;15.604;2023-08-12T15:02:38;100692.52;;;31.02;38.59
40794;BME280;26502;51.886;15.604;2023-08-12T15:07:44;100688.19;;;30.84;38.40
40794;BME280;26502;51.886;15.604;2023-08-12T15:12:51;100683.34;;;30.80;38.81
40794;BME280;26502;51.886;15.604;2023-08-12T15:17:58;100681.60;;;30.82;39.17
40794;BME280;26502;51.886;15.604;2023-08-12T15:23:05;100687.84;;;30.90;38.50
40794;BME280;26502;51.886;15.604;2023-08-12T15:28:12;100682.73;;;30.96;38.41
40794;BME280;26502;51.886;15.604;2023-08-12T15:33:18;100681.23;;;31.04;38.58
40794;BME280;26502;51.886;15.604;2023-08-12T15:38:24;100682.66;;;31.13;38.50
40794;BME280;26502;51.886;15.604;2023-08-12T15:43:30;100688.31;;;31.06;38.26
40794;BME280;26502;51.886;15.604;2023-08-12T15:48:36;100686.88;;;31.00;38.51
40794;BME280;26502;51.886;15.604;2023-08-12T15:53:42;100689.20;;;31.17;38.66
40794;BME280;26502;51.886;15.604;2023-08-12T15:58:48;100678.67;;;31.04;38.66
40794;BME280;26502;51.886;15.604;2023-08-12T16:03:54;100674.02;;;30.81;38.71
40794;BME280;26502;51.886;15.604;2023-08-12T16:09:00;100668.08;;;30.65;39.09
40794;BME280;26502;51.886;15.604;2023-08-12T16:14:07;100666.45;;;30.51;39.92
40794;BME280;26502;51.886;15.604;2023-08-12T16:19:13;100663.76;;;30.34;40.58
40794;BME280;26502;51.886;15.604;2023-08-12T16:24:19;100660.73;;;30.19;41.27
40794;BME280;26502;51.886;15.604;2023-08-12T16:29:25;100657.41;;;30.08;42.16
40794;BME280;26502;51.886;15.604;2023-08-12T16:34:32;100652.16;;;29.95;43.05
40794;BME280;26502;51.886;15.604;2023-08-12T16:39:38;100652.17;;;29.84;43.62
40794;BME280;26502;51.886;15.604;2023-08-12T16:44:44;100648.55;;;29.70;44.31
40794;BME280;26502;51.886;15.604;2023-08-12T16:49:51;100646.44;;;29.57;44.23
40794;BME280;26502;51.886;15.604;2023-08-12T16:54:57;100647.93;;;29.42;44.66
40794;BME280;26502;51.886;15.604;2023-08-12T17:00:05;100653.23;;;29.31;45.10
40794;BME280;26502;51.886;15.604;2023-08-12T17:05:11;100654.66;;;29.22;45.58
40794;BME280;26502;51.886;15.604;2023-08-12T17:10:18;100648.75;;;29.08;46.12
40794;BME280;26502;51.886;15.604;2023-08-12T17:15:24;100641.73;;;28.88;46.46
40794;BME280;26502;51.886;15.604;2023-08-12T17:20:30;100637.83;;;28.66;46.73
40794;BME280;26502;51.886;15.604;2023-08-12T17:25:36;100636.20;;;28.42;46.63
40794;BME280;26502;51.886;15.604;2023-08-12T17:30:42;100632.35;;;28.24;46.82
40794;BME280;26502;51.886;15.604;2023-08-12T17:35:48;100639.15;;;28.10;47.33
40794;BME280;26502;51.886;15.604;2023-08-12T17:40:57;100636.75;;;28.02;48.15
40794;BME280;26502;51.886;15.604;2023-08-12T17:46:04;100634.63;;;27.89;48.61
40794;BME280;26502;51.886;15.604;2023-08-12T17:51:14;100636.24;;;27.72;48.42
40794;BME280;26502;51.886;15.604;2023-08-12T17:56:20;100629.70;;;27.55;48.85
40794;BME280;26502;51.886;15.604;2023-08-12T18:01:26;100633.41;;;27.42;49.41
40794;BME280;26502;51.886;15.604;2023-08-12T18:06:33;100630.08;;;27.30;49.62
40794;BME280;26502;51.886;15.604;2023-08-12T18:11:38;100630.40;;;27.17;49.84
40794;BME280;26502;51.886;15.604;2023-08-12T18:16:44;100628.86;;;26.99;50.21
40794;BME280;26502;51.886;15.604;2023-08-12T18:21:51;100628.09;;;26.85;50.74
40794;BME280;26502;51.886;15.604;2023-08-12T18:26:57;100619.31;;;26.69;50.49
40794;BME280;26502;51.886;15.604;2023-08-12T18:32:03;100615.73;;;26.54;51.09
40794;BME280;26502;51.886;15.604;2023-08-12T18:37:09;100614.98;;;26.41;51.38
40794;BME280;26502;51.886;15.604;2023-08-12T18:42:17;100618.65;;;26.26;51.61
40794;BME280;26502;51.886;15.604;2023-08-12T18:47:24;100618.11;;;26.15;51.85
40794;BME280;26502;51.886;15.604;2023-08-12T18:52:30;100622.66;;;26.01;52.43
40794;BME280;26502;51.886;15.604;2023-08-12T18:57:35;100628.83;;;25.90;52.83
40794;BME280;26502;51.886;15.604;2023-08-12T19:02:42;100626.54;;;25.87;53.16
40794;BME280;26502;51.886;15.604;2023-08-12T19:07:47;100630.61;;;25.90;53.38
40794;BME280;26502;51.886;15.604;2023-08-12T19:12:53;100631.31;;;25.86;53.65
40794;BME280;26502;51.886;15.604;2023-08-12T19:17:59;100630.73;;;25.79;53.56
40794;BME280;26502;51.886;15.604;2023-08-12T19:23:05;100628.30;;;25.70;53.65
40794;BME280;26502;51.886;15.604;2023-08-12T19:28:11;100621.59;;;25.55;54.03
40794;BME280;26502;51.886;15.604;2023-08-12T19:33:18;100625.34;;;25.41;54.61
40794;BME280;26502;51.886;15.604;2023-08-12T19:38:24;100619.81;;;25.34;55.03
40794;BME280;26502;51.886;15.604;2023-08-12T19:43:30;100620.71;;;25.30;55.37
40794;BME280;26502;51.886;15.604;2023-08-12T19:48:36;100614.66;;;25.25;55.71
40794;BME280;26502;51.886;15.604;2023-08-12T19:53:42;100613.75;;;25.21;55.96
40794;BME280;26502;51.886;15.604;2023-08-12T19:58:48;100610.92;;;25.22;56.01
40794;BME280;26502;51.886;15.604;2023-08-12T20:03:53;100610.64;;;25.15;56.07
40794;BME280;26502;51.886;15.604;2023-08-12T20:08:59;100612.65;;;25.10;56.27
40794;BME280;26502;51.886;15.604;2023-08-12T20:14:05;100616.82;;;25.08;56.54
40794;BME280;26502;51.886;15.604;2023-08-12T20:19:11;100619.75;;;25.09;56.67
40794;BME280;26502;51.886;15.604;2023-08-12T20:24:17;100631.77;;;24.91;56.55
40794;BME280;26502;51.886;15.604;2023-08-12T20:29:23;100661.10;;;24.69;56.30
40794;BME280;26502;51.886;15.604;2023-08-12T20:34:28;100665.99;;;24.33;56.26
40794;BME280;26502;51.886;15.604;2023-08-12T20:39:34;100659.23;;;24.40;56.31
40794;BME280;26502;51.886;15.604;2023-08-12T20:44:40;100655.85;;;24.51;56.46
40794;BME280;26502;51.886;15.604;2023-08-12T20:49:46;100653.58;;;24.48;56.40
40794;BME280;26502;51.886;15.604;2023-08-12T20:54:52;100648.79;;;24.45;56.63
40794;BME280;26502;51.886;15.604;2023-08-12T20:59:58;100645.08;;;24.36;56.87
40794;BME280;26502;51.886;15.604;2023-08-12T21:05:05;100656.31;;;24.22;56.90
40794;BME280;26502;51.886;15.604;2023-08-12T21:10:12;100657.18;;;24.08;56.83
40794;BME280;26502;51.886;15.604;2023-08-12T21:15:18;100668.30;;;23.83;56.77
40794;BME280;26502;51.886;15.604;2023-08-12T21:20:23;100665.98;;;23.74;57.12
40794;BME280;26502;51.886;15.604;2023-08-12T21:25:29;100665.95;;;23.72;57.40
40794;BME280;26502;51.886;15.604;2023-08-12T21:30:35;100663.98;;;23.68;57.57
40794;BME280;26502;51.886;15.604;2023-08-12T21:35:41;100664.85;;;23.60;57.73
40794;BME280;26502;51.886;15.604;2023-08-12T21:40:47;100663.98;;;23.47;57.78
40794;BME280;26502;51.886;15.604;2023-08-12T21:45:53;100668.55;;;23.23;57.78
40794;BME280;26502;51.886;15.604;2023-08-12T21:50:59;100660.28;;;23.14;58.25
40794;BME280;26502;51.886;15.604;2023-08-12T21:56:05;100664.17;;;23.15;58.71
40794;BME280;26502;51.886;15.604;2023-08-12T22:01:11;100676.63;;;23.02;58.67
40794;BME280;26502;51.886;15.604;2023-08-12T22:06:17;100684.52;;;22.84;58.76
40794;BME280;26502;51.886;15.604;2023-08-12T22:11:22;100689.63;;;22.75;59.05
40794;BME280;26502;51.886;15.604;2023-08-12T22:16:30;100697.41;;;22.66;59.26
40794;BME280;26502;51.886;15.604;2023-08-12T22:21:37;100689.36;;;22.67;59.59
40794;BME280;26502;51.886;15.604;2023-08-12T22:26:43;100698.33;;;22.70;59.72
40794;BME280;26502;51.886;15.604;2023-08-12T22:31:49;100698.80;;;22.67;59.96
40794;BME280;26502;51.886;15.604;2023-08-12T22:36:55;100692.21;;;22.61;60.06
40794;BME280;26502;51.886;15.604;2023-08-12T22:42:00;100695.92;;;22.45;60.18
40794;BME280;26502;51.886;15.604;2023-08-12T22:47:07;100696.06;;;22.27;60.48
40794;BME280;26502;51.886;15.604;2023-08-12T22:52:13;100692.63;;;22.30;60.68
40794;BME280;26502;51.886;15.604;2023-08-12T22:57:19;100699.17;;;22.22;60.83
40794;BME280;26502;51.886;15.604;2023-08-12T23:02:25;100705.04;;;22.08;61.22
40794;BME280;26502;51.886;15.604;2023-08-12T23:07:30;100710.13;;;21.98;61.36
40794;BME280;26502;51.886;15.604;2023-08-12T23:12:37;100710.50;;;21.94;61.95
40794;BME280;26502;51.886;15.604;2023-08-12T23:17:42;100712.48;;;21.89;62.38
40794;BME280;26502;51.886;15.604;2023-08-12T23:22:48;100714.52;;;21.82;62.71
40794;BME280;26502;51.886;15.604;2023-08-12T23:27:54;100716.20;;;21.74;63.23
40794;BME280;26502;51.886;15.604;2023-08-12T23:33:01;100714.20;;;21.72;63.26
40794;BME280;26502;51.886;15.604;2023-08-12T23:38:07;100714.27;;;21.67;63.76
40794;BME280;26502;51.886;15.604;2023-08-12T23:43:13;100717.41;;;21.59;63.93
40794;BME280;26502;51.886;15.604;2023-08-12T23:48:19;100717.99;;;21.49;64.34
40794;BME280;26502;51.886;15.604;2023-08-12T23:53:25;100714.91;;;21.44;64.68
40794;BME280;26502;51.886;15.604;2023-08-12T23:58:31;100718.12;;;21.37;64.72
